Time;durP1;ratioP1;P1;durP2;ratioP2;P2;SDS_P1;SDS_P2;PMS_P1;PMS_P2;Temp;Humidity;BMP_temperature;BMP_pressure;BME280_temperature;BME280_humidity;BME280_pressure;Samples;Min_cycle;Max_cycle;Signal;HPM_P1;HPM_P2
2023/03/27 00:00:19;;;;;;;;;;;;;;;20.07;49.58;100034.94;4953330;28;3176;-67
2023/03/27 00:02:48;;;;;;;;;;;;;;;20.08;49.55;100039.25;4961587;28;3542;-66
2023/03/27 00:05:15;;;;;;;;;;;;;;;20.10;49.59;100038.59;4964624;28;3064;-66
2023/03/27 00:07:41;;;;;;;;;;;;;;;20.12;49.44;100046.56;4961264;28;3186;-67
2023/03/27 00:10:08;;;;;;;;;;;;;;;20.12;49.48;100058.06;4957961;28;3198;-67
2023/03/27 00:12:35;;;;;;;;;;;;;;;20.12;49.60;100052.31;4964676;28;3226;-67
2023/03/27 00:15:01;;;;;;;;;;;;;;;20.13;49.46;100065.28;4965562;28;3173;-67
2023/03/27 00:17:27;;;;;;;;;;;;;;;20.12;49.67;100069.56;4963682;28;3106;-67
2023/03/27 00:19:54;;;;;;;;;;;;;;;20.12;49.73;100075.31;4962175;28;3045;-67
2023/03/27 00:22:20;;;;;;;;;;;;;;;20.11;49.69;100074.56;4967038;28;3471;-67
2023/03/27 00:24:47;;;;;;;;;;;;;;;20.09;49.74;100078.13;4963560;28;2913;-68
2023/03/27 00:27:13;;;;;;;;;;;;;;;20.09;49.81;100077.38;4965447;28;3254;-67
2023/03/27 00:29:40;;;;;;;;;;;;;;;20.08;49.77;100079.50;4964160;28;3246;-68
2023/03/27 00:32:06;;;;;;;;;;;;;;;20.08;49.74;100070.88;4963670;28;3154;-68
2023/03/27 00:34:32;;;;;;;;;;;;;;;20.07;49.76;100080.91;4942959;28;3592;-67
2023/03/27 00:36:59;;;;;;;;;;;;;;;20.06;49.78;100087.31;4946344;28;3208;-67
2023/03/27 00:39:26;;;;;;;;;;;;;;;20.06;49.83;100085.19;4945328;28;4019;-67
2023/03/27 00:41:54;;;;;;;;;;;;;;;20.05;49.82;100098.09;4958084;28;3524;-66
2023/03/27 00:44:24;;;;;;;;;;;;;;;20.06;49.75;100101.69;4957258;28;3548;-67
2023/03/27 00:46:53;;;;;;;;;;;;;;;20.06;49.84;100105.28;4961502;28;3246;-68
2023/03/27 00:49:19;;;;;;;;;;;;;;;20.05;49.85;100106.72;4957672;28;3369;-67
2023/03/27 00:51:46;;;;;;;;;;;;;;;20.04;49.78;100113.88;4960575;28;3396;-67
2023/03/27 00:54:15;;;;;;;;;;;;;;;20.04;49.91;100113.88;4944708;28;3508;-68
2023/03/27 00:56:41;;;;;;;;;;;;;;;20.01;49.90;100120.94;4962703;28;3298;-67
2023/03/27 00:59:09;;;;;;;;;;;;;;;20.02;49.88;100118.78;4964584;28;3237;-67
2023/03/27 01:01:36;;;;;;;;;;;;;;;20.02;49.97;100125.28;4937245;28;3541;-68
2023/03/27 01:04:03;;;;;;;;;;;;;;;20.01;49.97;100125.94;4944221;28;3078;-67
2023/03/27 01:06:29;;;;;;;;;;;;;;;20.00;49.94;100128.09;4930720;28;3399;-67
2023/03/27 01:08:57;;;;;;;;;;;;;;;19.98;49.86;100130.88;4932335;28;3306;-68
2023/03/27 01:11:28;;;;;;;;;;;;;;;19.99;49.89;100140.97;4960180;28;3273;-67
2023/03/27 01:14:13;;;;;;;;;;;;;;;19.97;50.10;100138.00;4960283;28;3195;-68
2023/03/27 01:17:16;;;;;;;;;;;;;;;19.98;50.10;100141.66;4944549;28;3272;-68
2023/03/27 01:20:03;;;;;;;;;;;;;;;19.95;49.95;100143.72;4958435;28;3429;-68
2023/03/27 01:22:48;;;;;;;;;;;;;;;19.96;50.01;100159.53;4961833;28;3435;-68
2023/03/27 01:25:39;;;;;;;;;;;;;;;19.94;50.07;100150.84;4944497;28;3336;-68
2023/03/27 01:28:25;;;;;;;;;;;;;;;19.93;49.93;100163.75;4932014;28;3193;-68
2023/03/27 01:30:54;;;;;;;;;;;;;;;19.95;50.00;100165.94;4942763;28;3433;-68
2023/03/27 01:33:25;;;;;;;;;;;;;;;19.96;49.97;100173.19;4931833;28;3135;-68
2023/03/27 01:40:04;;;;;;;;;;;;;;;19.97;50.08;100181.13;4948001;28;3017;-67
2023/03/27 01:42:31;;;;;;;;;;;;;;;20.00;50.09;100179.06;4929193;28;3292;-68
2023/03/27 01:45:01;;;;;;;;;;;;;;;20.00;50.05;100176.19;4940575;28;3270;-68
2023/03/27 01:47:33;;;;;;;;;;;;;;;20.00;49.99;100176.94;4947983;28;3146;-67
2023/03/27 01:50:19;;;;;;;;;;;;;;;20.03;49.86;100186.38;4964460;28;3566;-68
2023/03/27 01:52:48;;;;;;;;;;;;;;;20.00;50.05;100185.56;4962306;28;3139;-68
2023/03/27 01:55:15;;;;;;;;;;;;;;;20.00;49.92;100191.31;4944572;28;3190;-68
2023/03/27 01:57:45;;;;;;;;;;;;;;;20.00;49.95;100205.69;4963114;28;3246;-67
2023/03/27 02:00:16;;;;;;;;;;;;;;;20.01;49.83;100201.38;4947722;28;2774;-68
2023/03/27 02:02:46;;;;;;;;;;;;;;;20.00;49.91;100199.94;4939738;28;3313;-68
2023/03/27 02:05:21;;;;;;;;;;;;;;;20.00;49.86;100208.53;4924366;28;3125;-68
2023/03/27 02:07:50;;;;;;;;;;;;;;;20.00;49.88;100208.53;4962325;28;3208;-68
2023/03/27 02:10:18;;;;;;;;;;;;;;;20.00;49.98;100204.94;4962995;28;3298;-68
2023/03/27 02:12:46;;;;;;;;;;;;;;;19.99;50.15;100215.69;4924219;28;3080;-66
2023/03/27 02:15:15;;;;;;;;;;;;;;;19.97;50.00;100209.84;4948466;28;3298;-67
2023/03/27 02:17:55;;;;;;;;;;;;;;;19.98;49.90;100222.09;4942493;28;3387;-68
2023/03/27 02:20:22;;;;;;;;;;;;;;;19.96;50.01;100219.88;4943685;28;1636;-67
2023/03/27 02:22:49;;;;;;;;;;;;;;;19.97;49.97;100226.38;4963467;28;3198;-68
2023/03/27 02:25:23;;;;;;;;;;;;;;;19.95;50.11;100224.16;4946652;28;2960;-68
2023/03/27 02:27:50;;;;;;;;;;;;;;;19.95;50.12;100229.91;4954050;28;3314;-67
2023/03/27 02:30:22;;;;;;;;;;;;;;;19.95;50.20;100229.91;4924322;28;3342;-68
2023/03/27 02:32:57;;;;;;;;;;;;;;;19.94;50.02;100245.66;4937996;28;3316;-68
2023/03/27 02:35:43;;;;;;;;;;;;;;;19.93;49.97;100244.19;4924878;28;3221;-68
2023/03/27 02:38:12;;;;;;;;;;;;;;;19.92;50.17;100259.94;4963287;28;3204;-68
2023/03/27 02:41:06;;;;;;;;;;;;;;;19.92;50.18;100259.94;4927151;28;3333;-67
2023/03/27 02:44:04;;;;;;;;;;;;;;;19.91;50.08;100260.63;4959639;28;2932;-67
2023/03/27 02:46:54;;;;;;;;;;;;;;;19.92;50.09;100276.47;4955971;28;3257;-68
2023/03/27 02:49:23;;;;;;;;;;;;;;;19.92;50.04;100282.94;4947569;28;2732;-68
2023/03/27 02:51:53;;;;;;;;;;;;;;;19.93;50.19;100290.19;4965953;28;2843;-68
2023/03/27 02:54:21;;;;;;;;;;;;;;;19.94;50.12;100288.78;4942496;28;3440;-68
2023/03/27 02:56:50;;;;;;;;;;;;;;;19.98;50.06;100291.06;4939720;28;3488;-68
2023/03/27 02:59:26;;;;;;;;;;;;;;;19.98;50.03;100294.69;4937911;28;3317;-68
2023/03/27 03:01:53;;;;;;;;;;;;;;;20.00;49.92;100299.78;4960813;28;3445;-68
2023/03/27 03:04:29;;;;;;;;;;;;;;;20.00;49.89;100300.50;4950913;28;3291;-68
2023/03/27 03:07:10;;;;;;;;;;;;;;;20.00;49.88;100308.41;4914202;28;3290;-68
2023/03/27 03:09:37;;;;;;;;;;;;;;;20.01;49.81;100307.00;4929347;28;3121;-68
2023/03/27 03:12:06;;;;;;;;;;;;;;;20.01;49.82;100318.47;4938815;28;3282;-68
2023/03/27 03:14:38;;;;;;;;;;;;;;;20.00;49.86;100317.75;4960827;28;1920;-68
2023/03/27 03:17:05;;;;;;;;;;;;;;;20.00;49.93;100320.63;4940666;28;3048;-67
2023/03/27 03:19:31;;;;;;;;;;;;;;;20.02;49.73;100331.44;4930798;28;3780;-67
2023/03/27 03:21:58;;;;;;;;;;;;;;;20.02;49.98;100325.69;4942743;28;3077;-68
2023/03/27 03:24:26;;;;;;;;;;;;;;;20.04;49.83;100340.91;4943605;28;3282;-67
2023/03/27 03:26:53;;;;;;;;;;;;;;;20.04;49.84;100340.16;4954907;28;3924;-67
2023/03/27 03:29:19;;;;;;;;;;;;;;;20.05;49.92;100338.78;4938465;28;3251;-67
2023/03/27 03:32:05;;;;;;;;;;;;;;;20.06;49.83;100348.84;4955649;28;3246;-67
2023/03/27 03:34:32;;;;;;;;;;;;;;;20.06;49.85;100360.34;4941774;28;3089;-68
2023/03/27 03:36:58;;;;;;;;;;;;;;;20.06;49.75;100354.59;4958940;28;3240;-68
2023/03/27 03:39:28;;;;;;;;;;;;;;;20.06;49.78;100357.47;4959487;28;3033;-67
2023/03/27 03:41:55;;;;;;;;;;;;;;;20.04;49.83;100369.66;4944848;28;3168;-68
2023/03/27 03:44:21;;;;;;;;;;;;;;;20.05;49.77;100370.38;4954819;28;3320;-68
2023/03/27 03:46:48;;;;;;;;;;;;;;;20.05;49.69;100374.00;4936435;28;3031;-67
2023/03/27 03:49:19;;;;;;;;;;;;;;;20.06;49.96;100372.56;4940718;28;3298;-68
2023/03/27 03:51:45;;;;;;;;;;;;;;;20.05;49.81;100374.00;4944879;28;3194;-67
2023/03/27 03:54:11;;;;;;;;;;;;;;;20.08;49.68;100380.56;4958845;28;3288;-68
2023/03/27 03:56:42;;;;;;;;;;;;;;;20.08;49.78;100381.28;4957239;28;3174;-68
2023/03/27 03:59:08;;;;;;;;;;;;;;;20.08;49.79;100392.78;4939277;28;3208;-67
2023/03/27 04:01:35;;;;;;;;;;;;;;;20.09;49.73;100382.78;4958697;28;3418;-68
2023/03/27 04:04:04;;;;;;;;;;;;;;;20.09;49.88;100387.78;4940589;28;3308;-67
2023/03/27 04:06:51;;;;;;;;;;;;;;;20.08;49.75;100407.16;4954020;28;3220;-68
2023/03/27 04:09:18;;;;;;;;;;;;;;;20.08;49.68;100410.03;4945187;28;3254;-68
2023/03/27 04:12:03;;;;;;;;;;;;;;;20.09;49.74;100411.53;4949654;28;2793;-68
2023/03/27 04:14:43;;;;;;;;;;;;;;;20.08;49.82;100421.53;4961875;28;3232;-67
2023/03/27 04:17:47;;;;;;;;;;;;;;;20.08;49.71;100418.66;4959246;28;3238;-67
2023/03/27 04:20:13;;;;;;;;;;;;;;;20.09;49.66;100428.75;4941615;28;3194;-68
2023/03/27 04:22:45;;;;;;;;;;;;;;;20.09;49.64;100428.75;4958084;28;2803;-67
2023/03/27 04:25:14;;;;;;;;;;;;;;;20.11;49.77;100433.09;4943427;28;3310;-67
2023/03/27 04:27:43;;;;;;;;;;;;;;;20.12;49.71;100425.97;4938942;28;3146;-67
2023/03/27 04:30:22;;;;;;;;;;;;;;;20.12;49.61;100440.34;4956259;28;3190;-67
2023/03/27 04:33:17;;;;;;;;;;;;;;;20.12;49.81;100440.34;4943445;28;3207;-67
2023/03/27 04:36:13;;;;;;;;;;;;;;;20.13;49.61;100441.81;4962493;28;3314;-67
2023/03/27 04:38:50;;;;;;;;;;;;;;;20.13;49.61;100438.94;4948915;28;3244;-67
2023/03/27 04:41:17;;;;;;;;;;;;;;;20.13;49.77;100444.69;4950924;28;3297;-68
2023/03/27 04:43:44;;;;;;;;;;;;;;;20.13;49.67;100453.31;4946924;28;2735;-67
2023/03/27 04:46:11;;;;;;;;;;;;;;;20.12;49.86;100451.84;4958943;28;3278;-68
2023/03/27 04:48:39;;;;;;;;;;;;;;;20.11;49.82;100453.97;4944204;28;3167;-68
2023/03/27 04:51:29;;;;;;;;;;;;;;;20.13;49.77;100464.81;4956562;28;3080;-68
2023/03/27 04:53:56;;;;;;;;;;;;;;;20.12;49.74;100460.47;4937936;28;3387;-68
2023/03/27 04:56:23;;;;;;;;;;;;;;;20.12;49.75;100454.72;4961200;28;3255;-67
2023/03/27 04:58:52;;;;;;;;;;;;;;;20.11;49.79;100458.97;4944241;28;3147;-67
2023/03/27 05:01:19;;;;;;;;;;;;;;;20.13;49.82;100470.56;4936289;28;3600;-67
2023/03/27 05:04:10;;;;;;;;;;;;;;;20.13;49.77;100479.19;4947378;28;2894;-67
2023/03/27 05:06:44;;;;;;;;;;;;;;;20.15;49.80;100470.66;4946091;28;3396;-67
2023/03/27 05:09:14;;;;;;;;;;;;;;;20.15;49.82;100480.00;4946997;28;3129;-67
2023/03/27 05:11:41;;;;;;;;;;;;;;;20.15;49.79;100488.63;4963352;28;3187;-68
2023/03/27 05:14:08;;;;;;;;;;;;;;;20.16;49.71;100495.09;4940819;28;3307;-67
2023/03/27 05:16:36;;;;;;;;;;;;;;;20.14;49.78;100495.78;4940615;28;3309;-68
2023/03/27 05:19:04;;;;;;;;;;;;;;;20.15;49.74;100499.41;4942151;28;3196;-67
2023/03/27 05:21:40;;;;;;;;;;;;;;;20.14;49.77;100503.69;4957193;28;3258;-67
2023/03/27 05:24:09;;;;;;;;;;;;;;;20.14;49.61;100510.16;4957757;28;3278;-68
2023/03/27 05:26:37;;;;;;;;;;;;;;;20.14;49.87;100509.44;4945265;28;3847;-67
2023/03/27 05:29:04;;;;;;;;;;;;;;;20.13;49.73;100513.69;4961487;28;3197;-68
2023/03/27 05:31:34;;;;;;;;;;;;;;;20.19;49.57;100513.94;4950109;28;3707;-67
2023/03/27 05:34:20;;;;;;;;;;;;;;;19.51;44.39;100527.53;4948201;28;3555;-67
2023/03/27 05:36:50;;;;;;;;;;;;;;;19.22;46.10;100521.25;4933005;28;3713;-61
2023/03/27 05:39:16;;;;;;;;;;;;;;;19.96;46.61;100524.50;4933461;28;4649;-61
2023/03/27 05:41:45;;;;;;;;;;;;;;;20.27;47.57;100531.50;4940597;28;5439;-61
2023/03/27 05:44:19;;;;;;;;;;;;;;;20.44;48.31;100541.56;4957965;28;4821;-62
2023/03/27 05:46:46;;;;;;;;;;;;;;;20.48;48.47;100545.34;4959851;28;3814;-62
2023/03/27 05:49:17;;;;;;;;;;;;;;;20.59;48.66;100548.66;4944859;28;3628;-61
2023/03/27 05:51:48;;;;;;;;;;;;;;;20.49;48.40;100549.69;4934555;28;3737;-63
2023/03/27 05:54:18;;;;;;;;;;;;;;;20.51;48.71;100544.03;4947664;28;3699;-64
2023/03/27 05:56:54;;;;;;;;;;;;;;;20.41;48.61;100568.75;4946980;28;3648;-65
2023/03/27 05:59:20;;;;;;;;;;;;;;;20.38;48.84;100572.94;4935113;28;3777;-69
2023/03/27 06:01:53;;;;;;;;;;;;;;;20.34;48.80;100579.28;4957145;28;3632;-69
2023/03/27 06:04:24;;;;;;;;;;;;;;;20.56;48.93;100570.84;4935134;28;3660;-68
2023/03/27 06:07:01;;;;;;;;;;;;;;;20.66;49.34;100584.91;4947367;28;2996;-68
2023/03/27 06:09:29;;;;;;;;;;;;;;;21.10;49.18;100580.19;4935780;28;4266;-69
2023/03/27 06:12:21;;;;;;;;;;;;;;;21.15;48.65;100583.97;4957066;28;4450;-72
2023/03/27 06:14:51;;;;;;;;;;;;;;;21.31;48.54;100584.59;4940153;28;3625;-67
2023/03/27 06:17:29;;;;;;;;;;;;;;;21.31;48.62;100581.72;4953194;28;3628;-74
2023/03/27 06:20:10;;;;;;;;;;;;;;;21.30;48.50;100591.75;4942776;28;3211;-71
2023/03/27 06:22:41;;;;;;;;;;;;;;;21.31;48.72;100596.09;4955609;28;4343;-66
2023/03/27 06:25:07;;;;;;;;;;;;;;;21.40;48.38;100600.06;4947121;28;3719;-69
2023/03/27 06:27:34;;;;;;;;;;;;;;;21.38;48.98;100597.09;4966086;28;2906;-78
2023/03/27 06:30:00;;;;;;;;;;;;;;;21.42;48.86;100608.78;4954689;28;3045;-72
2023/03/27 06:32:27;;;;;;;;;;;;;;;21.45;48.93;100610.34;4947442;28;4591;-72
2023/03/27 06:34:54;;;;;;;;;;;;;;;21.47;48.92;100610.41;4949870;28;2427;-71
2023/03/27 06:37:45;;;;;;;;;;;;;;;21.50;48.66;100614.84;4944691;28;3636;-70
2023/03/27 06:40:19;;;;;;;;;;;;;;;21.57;48.61;100612.94;4943095;28;4659;-70
2023/03/27 06:42:49;;;;;;;;;;;;;;;21.55;48.44;100615.72;4962388;28;3413;-70
2023/03/27 06:45:28;;;;;;;;;;;;;;;21.59;48.51;100621.66;4961021;28;3768;-71
2023/03/27 06:48:24;;;;;;;;;;;;;;;21.63;48.42;100623.97;4960402;28;3298;-70
2023/03/27 06:50:54;;;;;;;;;;;;;;;21.70;48.68;100629.28;4966819;28;1706;-67
2023/03/27 06:53:22;;;;;;;;;;;;;;;21.83;48.39;100632.59;4962097;28;2887;-67
2023/03/27 06:55:54;;;;;;;;;;;;;;;22.02;48.03;100640.53;4949273;28;3073;-66
2023/03/27 06:58:21;;;;;;;;;;;;;;;21.98;47.70;100637.50;4942456;28;3498;-65
2023/03/27 07:00:48;;;;;;;;;;;;;;;21.91;47.72;100644.44;4948346;28;3468;-65
2023/03/27 07:03:16;;;;;;;;;;;;;;;21.89;47.80;100644.38;4961321;28;3185;-68
2023/03/27 07:06:01;;;;;;;;;;;;;;;21.92;48.05;100657.44;4963962;28;3184;-69
2023/03/27 07:08:38;;;;;;;;;;;;;;;21.90;48.18;100661.00;4947864;28;3399;-69
2023/03/27 07:11:05;;;;;;;;;;;;;;;21.92;48.10;100660.31;4966674;28;1725;-69
2023/03/27 07:13:43;;;;;;;;;;;;;;;21.90;47.96;100660.28;4943838;28;3506;-70
2023/03/27 07:16:19;;;;;;;;;;;;;;;21.83;47.77;100661.44;4961203;28;2973;-69
2023/03/27 07:18:45;;;;;;;;;;;;;;;20.87;45.45;100664.91;4948994;28;2739;-66
2023/03/27 07:21:14;;;;;;;;;;;;;;;20.81;46.36;100670.41;4936246;28;3497;-67
2023/03/27 07:23:40;;;;;;;;;;;;;;;21.29;46.56;100665.16;4937606;28;4330;-69
2023/03/27 07:26:09;;;;;;;;;;;;;;;21.57;46.83;100664.78;4937764;28;3533;-68
2023/03/27 07:28:53;;;;;;;;;;;;;;;21.72;46.71;100681.22;4951529;28;4094;-68
2023/03/27 07:31:21;;;;;;;;;;;;;;;21.75;46.83;100668.38;4958603;28;4164;-69
2023/03/27 07:33:50;;;;;;;;;;;;;;;21.80;46.67;100674.28;4940111;28;3632;-70
2023/03/27 07:36:26;;;;;;;;;;;;;;;21.75;46.78;100674.13;4951282;28;4075;-69
2023/03/27 07:39:00;;;;;;;;;;;;;;;21.73;46.67;100679.81;4934681;28;3710;-69
2023/03/27 07:41:30;;;;;;;;;;;;;;;21.72;46.76;100681.22;4936619;28;3751;-69
2023/03/27 07:43:56;;;;;;;;;;;;;;;21.73;46.52;100684.84;4960126;28;3673;-67
2023/03/27 07:46:24;;;;;;;;;;;;;;;21.72;46.32;100692.75;4942130;28;3772;-66
2023/03/27 07:48:52;;;;;;;;;;;;;;;21.72;46.53;100692.03;4956614;28;3696;-69
2023/03/27 07:51:22;;;;;;;;;;;;;;;21.87;47.13;100696.91;4958971;28;3632;-69
2023/03/27 07:53:52;;;;;;;;;;;;;;;22.00;46.33;100692.34;4956371;28;3533;-76
2023/03/27 07:56:23;;;;;;;;;;;;;;;22.05;45.82;100705.50;4942025;28;3567;-73
2023/03/27 07:59:10;;;;;;;;;;;;;;;21.96;45.34;100703.72;4952913;28;3598;-75
2023/03/27 08:01:37;;;;;;;;;;;;;;;21.79;45.38;100690.84;4938697;28;3576;-73
2023/03/27 08:04:05;;;;;;;;;;;;;;;21.69;45.16;100705.63;4936310;28;3637;-70
2023/03/27 08:06:34;;;;;;;;;;;;;;;21.67;44.35;100711.31;4932806;28;3749;-69
2023/03/27 08:09:02;;;;;;;;;;;;;;;21.64;44.00;100709.00;4935732;28;4031;-71
2023/03/27 08:11:29;;;;;;;;;;;;;;;21.72;44.78;100697.78;4938652;28;3434;-70
2023/03/27 08:13:57;;;;;;;;;;;;;;;21.28;40.68;100706.88;4948110;28;3643;-62
2023/03/27 08:16:27;;;;;;;;;;;;;;;19.22;39.64;100716.44;4949475;28;3532;-75
2023/03/27 08:18:56;;;;;;;;;;;;;;;18.16;40.36;100706.06;4930903;28;3593;-78
2023/03/27 08:21:23;;;;;;;;;;;;;;;17.96;39.74;100705.72;4935023;28;3610;-75
2023/03/27 08:23:50;;;;;;;;;;;;;;;17.94;38.75;100714.22;4933827;28;4371;-71
2023/03/27 08:26:49;;;;;;;;;;;;;;;17.64;37.84;100713.28;4957768;28;3480;-75
2023/03/27 08:29:15;;;;;;;;;;;;;;;17.11;37.05;100711.06;4959976;28;3543;-75
2023/03/27 08:31:45;;;;;;;;;;;;;;;17.31;37.20;100713.56;4942438;28;3752;-74
2023/03/27 08:34:13;;;;;;;;;;;;;;;17.22;37.60;100728.78;4942784;28;3658;-76
2023/03/27 08:36:45;;;;;;;;;;;;;;;17.28;35.68;100720.56;4942476;28;3612;-75
2023/03/27 08:39:12;;;;;;;;;;;;;;;17.15;36.04;100711.28;4942948;28;3907;-75
2023/03/27 08:41:55;;;;;;;;;;;;;;;17.06;36.20;100712.19;4938374;28;3666;-74
2023/03/27 08:44:32;;;;;;;;;;;;;;;16.77;35.44;100729.78;4943556;28;2906;-74
2023/03/27 08:47:16;;;;;;;;;;;;;;;16.54;35.52;100737.03;4931421;28;3003;-74
2023/03/27 08:49:51;;;;;;;;;;;;;;;17.03;36.29;100733.47;4923803;28;3789;-64
2023/03/27 08:52:25;;;;;;;;;;;;;;;18.81;36.71;100725.91;4937765;28;3746;-64
2023/03/27 08:55:00;;;;;;;;;;;;;;;19.41;39.68;100734.56;4939607;28;3608;-64
2023/03/27 08:57:35;;;;;;;;;;;;;;;19.64;39.01;100737.09;4954528;28;3655;-64
2023/03/27 09:00:09;;;;;;;;;;;;;;;19.79;41.02;100737.78;4952269;28;3603;-63
2023/03/27 09:02:42;;;;;;;;;;;;;;;20.02;40.31;100746.06;4941465;28;3643;-61
2023/03/27 09:05:18;;;;;;;;;;;;;;;20.27;42.01;100747.16;4940105;28;3498;-64
2023/03/27 09:08:04;;;;;;;;;;;;;;;20.46;41.72;100751.63;4951774;28;3567;-63
2023/03/27 09:10:35;;;;;;;;;;;;;;;20.63;41.53;100761.72;4935725;28;3633;-62
2023/03/27 09:13:31;;;;;;;;;;;;;;;20.70;41.90;100757.72;4934691;28;3598;-63
2023/03/27 09:16:17;;;;;;;;;;;;;;;20.68;42.65;100763.38;4958276;28;3602;-61
2023/03/27 09:19:02;;;;;;;;;;;;;;;20.61;43.80;100755.88;4941650;28;3613;-62
2023/03/27 09:21:33;;;;;;;;;;;;;;;20.41;44.84;100759.31;4919731;28;3892;-61
2023/03/27 09:24:05;;;;;;;;;;;;;;;20.31;45.29;100770.34;4940312;28;3550;-62
2023/03/27 09:26:49;;;;;;;;;;;;;;;20.29;45.23;100761.63;4945233;28;3660;-63
2023/03/27 09:29:40;;;;;;;;;;;;;;;20.30;45.47;100766.00;4941280;28;3763;-62
2023/03/27 09:32:36;;;;;;;;;;;;;;;20.35;45.09;100766.94;4954137;28;3667;-64
2023/03/27 09:35:03;;;;;;;;;;;;;;;20.40;44.52;100765.72;4946165;28;3532;-69
2023/03/27 09:37:30;;;;;;;;;;;;;;;16.82;43.71;100788.00;4939610;28;3552;-63
2023/03/27 09:39:58;;;;;;;;;;;;;;;19.31;43.46;100777.88;4938737;28;4445;-68
2023/03/27 09:42:27;;;;;;;;;;;;;;;20.20;42.69;100772.03;4922256;28;3690;-71
2023/03/27 09:44:55;;;;;;;;;;;;;;;20.51;42.58;100777.00;4958591;28;3547;-72
2023/03/27 09:47:30;;;;;;;;;;;;;;;20.64;43.05;100783.34;4944225;28;3733;-67
2023/03/27 09:50:08;;;;;;;;;;;;;;;20.72;43.81;100783.69;4938253;28;3810;-67
2023/03/27 09:52:51;;;;;;;;;;;;;;;20.83;43.94;100787.75;4934203;28;3530;-67
2023/03/27 09:55:34;;;;;;;;;;;;;;;20.85;43.81;100776.34;4945082;28;3175;-68
2023/03/27 09:58:24;;;;;;;;;;;;;;;20.88;44.31;100778.63;4942291;28;3598;-68
2023/03/27 10:01:06;;;;;;;;;;;;;;;21.13;44.33;100779.69;4941768;28;3606;-65
2023/03/27 10:03:35;;;;;;;;;;;;;;;21.23;44.00;100782.97;4956313;28;3185;-69
2023/03/27 10:06:06;;;;;;;;;;;;;;;21.24;44.42;100784.47;4936670;28;3949;-71
2023/03/27 10:08:45;;;;;;;;;;;;;;;21.03;44.50;100785.03;4939230;28;3626;-68
2023/03/27 10:11:19;;;;;;;;;;;;;;;21.17;44.44;100785.63;4954056;28;3614;-73
2023/03/27 10:13:56;;;;;;;;;;;;;;;21.27;43.81;100782.41;4943411;28;3369;-79
2023/03/27 10:16:26;;;;;;;;;;;;;;;21.28;43.59;100787.53;4924163;28;3298;-75
2023/03/27 10:18:58;;;;;;;;;;;;;;;21.29;43.64;100788.25;4941880;28;3423;-74
2023/03/27 10:21:25;;;;;;;;;;;;;;;21.32;43.74;100787.66;4922375;28;3727;-74
2023/03/27 10:23:57;;;;;;;;;;;;;;;21.38;43.56;100795.09;4934586;28;3985;-75
2023/03/27 10:26:42;;;;;;;;;;;;;;;21.43;43.58;100796.75;4947497;28;3677;-68
2023/03/27 10:29:25;;;;;;;;;;;;;;;21.50;43.57;100786.97;4936379;28;3524;-69
2023/03/27 10:31:52;;;;;;;;;;;;;;;21.52;43.75;100784.16;4941532;28;3196;-71
2023/03/27 10:34:53;;;;;;;;;;;;;;;21.52;43.93;100789.94;4945534;28;3536;-72
2023/03/27 10:37:39;;;;;;;;;;;;;;;21.52;43.96;100792.81;4955186;28;3755;-73
2023/03/27 10:40:18;;;;;;;;;;;;;;;21.54;43.71;100799.41;4938040;28;3277;-73
2023/03/27 10:42:47;;;;;;;;;;;;;;;21.56;43.86;100807.38;4959314;28;3116;-74
2023/03/27 10:45:18;;;;;;;;;;;;;;;21.56;44.01;100801.63;4947592;28;3486;-73
2023/03/27 10:47:46;;;;;;;;;;;;;;;21.60;44.08;100807.56;4937100;28;4300;-74
2023/03/27 10:50:25;;;;;;;;;;;;;;;21.38;44.01;100804.47;4938620;28;3724;-80
2023/03/27 10:53:00;;;;;;;;;;;;;;;21.30;44.17;100799.13;4918492;28;3520;-77
2023/03/27 10:55:50;;;;;;;;;;;;;;;21.29;44.30;100808.41;4940091;28;3663;-76
2023/03/27 10:58:22;;;;;;;;;;;;;;;21.29;44.55;100809.16;4931090;28;3726;-80
2023/03/27 11:01:07;;;;;;;;;;;;;;;21.29;44.47;100808.41;4962650;28;3749;-78
2023/03/27 11:03:36;;;;;;;;;;;;;;;21.28;44.40;100813.44;4931079;28;3385;-77
2023/03/27 11:06:06;;;;;;;;;;;;;;;21.27;44.47;100817.69;4919892;28;3656;-75
2023/03/27 11:08:43;;;;;;;;;;;;;;;21.30;44.68;100809.88;4951489;28;3625;-78
2023/03/27 11:11:26;;;;;;;;;;;;;;;21.29;44.34;100814.16;4921891;28;3436;-75
2023/03/27 11:13:55;;;;;;;;;;;;;;;21.07;43.63;100829.13;4936767;28;3836;-68
2023/03/27 11:16:22;;;;;;;;;;;;;;;20.99;43.17;100834.50;4937200;28;3667;-69
2023/03/27 11:19:08;;;;;;;;;;;;;;;21.32;44.08;100830.88;4951722;28;3635;-76
2023/03/27 11:21:57;;;;;;;;;;;;;;;21.52;44.18;100830.28;4957459;28;3536;-73
2023/03/27 11:24:37;;;;;;;;;;;;;;;21.61;43.97;100820.56;4927656;28;3987;-69
2023/03/27 11:27:19;;;;;;;;;;;;;;;21.70;44.17;100827.41;4952614;28;3608;-77
2023/03/27 11:29:51;;;;;;;;;;;;;;;21.75;43.97;100829.78;4939408;28;3750;-73
2023/03/27 11:32:38;;;;;;;;;;;;;;;21.84;44.03;100821.47;4954506;28;3435;-73
2023/03/27 11:35:12;;;;;;;;;;;;;;;21.90;43.65;100821.72;4942287;28;3757;-73
2023/03/27 11:38:00;;;;;;;;;;;;;;;21.93;43.44;100829.03;4943256;28;3738;-71
2023/03/27 11:40:34;;;;;;;;;;;;;;;21.96;43.32;100827.69;4937713;28;3600;-71
2023/03/27 11:43:00;;;;;;;;;;;;;;;21.98;43.51;100830.66;4933539;28;3802;-72
2023/03/27 11:45:31;;;;;;;;;;;;;;;21.98;43.40;100824.91;4916509;28;3645;-72
2023/03/27 11:48:00;;;;;;;;;;;;;;;21.92;43.12;100833.28;4955925;28;3741;-72
2023/03/27 11:50:39;;;;;;;;;;;;;;;21.66;43.94;100827.97;4935068;28;4054;-78
2023/03/27 11:53:06;;;;;;;;;;;;;;;21.53;43.77;100828.84;4932590;28;3675;-65
2023/03/27 11:55:57;;;;;;;;;;;;;;;14.79;36.13;100835.00;4955509;28;4322;-80
2023/03/27 11:58:28;;;;;;;;;;;;;;;18.35;35.79;100836.78;4955229;28;4016;-72
2023/03/27 12:00:57;;;;;;;;;;;;;;;20.11;35.65;100826.91;4943224;28;3557;-77
2023/03/27 12:03:35;;;;;;;;;;;;;;;20.78;34.93;100830.00;4940040;28;3665;-73
2023/03/27 12:06:08;;;;;;;;;;;;;;;21.06;36.08;100832.66;4937622;28;3746;-74
2023/03/27 12:08:39;;;;;;;;;;;;;;;21.22;37.18;100838.34;4963270;28;3615;-74
2023/03/27 12:11:06;;;;;;;;;;;;;;;21.28;37.71;100833.59;4961957;28;3734;-72
2023/03/27 12:13:47;;;;;;;;;;;;;;;21.34;38.13;100833.84;4944922;28;4130;-73
2023/03/27 12:16:31;;;;;;;;;;;;;;;21.28;38.41;100836.47;4930205;28;3562;-72
2023/03/27 12:19:03;;;;;;;;;;;;;;;21.23;38.60;100834.81;4963642;28;3599;-72
2023/03/27 12:22:03;;;;;;;;;;;;;;;21.26;39.37;100833.50;4966811;28;3569;-71
2023/03/27 12:25:04;;;;;;;;;;;;;;;21.33;39.30;100841.00;4947226;28;3660;-68
2023/03/27 12:28:08;;;;;;;;;;;;;;;21.49;40.02;100843.13;4960435;28;3562;-72
2023/03/27 12:31:05;;;;;;;;;;;;;;;21.54;39.92;100847.66;4949090;28;3823;-76
2023/03/27 12:33:43;;;;;;;;;;;;;;;21.55;40.05;100849.09;4945140;28;3385;-77
2023/03/27 12:36:14;;;;;;;;;;;;;;;21.60;40.20;100845.03;4936485;28;3692;-77
2023/03/27 12:38:42;;;;;;;;;;;;;;;21.63;39.99;100845.84;4941337;28;3602;-75
2023/03/27 12:41:27;;;;;;;;;;;;;;;21.59;40.54;100851.44;4939662;28;3612;-74
2023/03/27 12:43:58;;;;;;;;;;;;;;;21.58;40.86;100839.16;4939076;28;3620;-74
2023/03/27 12:46:31;;;;;;;;;;;;;;;21.62;40.82;100845.06;4938097;28;3387;-71
2023/03/27 12:49:07;;;;;;;;;;;;;;;21.63;40.82;100845.84;4936724;28;3670;-71
2023/03/27 12:51:52;;;;;;;;;;;;;;;21.56;41.46;100865.03;4953301;28;3630;-70
2023/03/27 12:54:41;;;;;;;;;;;;;;;21.53;41.64;100855.56;4936729;28;3727;-73
2023/03/27 12:57:43;;;;;;;;;;;;;;;21.53;41.83;100869.97;4952176;28;3494;-76
2023/03/27 13:00:18;;;;;;;;;;;;;;;21.70;41.98;100861.97;4938209;28;3632;-70
2023/03/27 13:03:10;;;;;;;;;;;;;;;21.83;41.66;100860.31;4932135;28;3372;-69
2023/03/27 13:05:46;;;;;;;;;;;;;;;21.84;41.44;100874.06;4921851;28;4102;-70
2023/03/27 13:08:22;;;;;;;;;;;;;;;21.81;41.09;100866.75;4963428;28;3633;-72
2023/03/27 13:11:07;;;;;;;;;;;;;;;21.93;41.02;100878.03;4945033;28;3308;-71
2023/03/27 13:13:42;;;;;;;;;;;;;;;21.88;41.09;100870.63;4960399;28;3535;-67
2023/03/27 13:16:13;;;;;;;;;;;;;;;20.17;32.13;100876.81;4934493;28;3855;-63
2023/03/27 13:19:04;;;;;;;;;;;;;;;19.97;32.68;100867.97;4962113;28;3455;-64
2023/03/27 13:21:38;;;;;;;;;;;;;;;19.80;33.98;100866.44;4930143;28;3736;-63
2023/03/27 13:24:28;;;;;;;;;;;;;;;19.90;33.49;100866.19;4940829;28;3529;-63
2023/03/27 13:26:58;;;;;;;;;;;;;;;19.88;32.41;100868.97;4937552;28;3860;-63